createdAt,value
2023-05-02T00:00:03.185Z,10.90
2023-05-02T00:01:02.668Z,10.90
2023-05-02T00:02:02.831Z,10.90
2023-05-02T00:03:03.470Z,10.90
2023-05-02T00:04:02.905Z,10.90
2023-05-02T00:05:02.760Z,10.90
2023-05-02T00:06:03.469Z,10.80
2023-05-02T00:07:03.446Z,10.80
2023-05-02T00:08:02.986Z,10.80
2023-05-02T00:09:02.665Z,10.80
2023-05-02T00:10:03.107Z,10.80
2023-05-02T00:11:02.960Z,10.70
2023-05-02T00:12:02.854Z,10.70
2023-05-02T00:13:03.340Z,10.70
2023-05-02T00:14:03.073Z,10.70
2023-05-02T00:15:03.415Z,10.70
2023-05-02T00:16:03.494Z,10.70
2023-05-02T00:17:03.011Z,10.70
2023-05-02T00:18:03.327Z,10.60
2023-05-02T00:19:02.764Z,10.60
2023-05-02T00:20:03.368Z,10.60
2023-05-02T00:21:02.978Z,10.60
2023-05-02T00:22:03.564Z,10.60
2023-05-02T00:23:03.096Z,10.50
2023-05-02T00:24:03.535Z,10.50
2023-05-02T00:25:03.643Z,10.50
2023-05-02T00:26:03.313Z,10.50
2023-05-02T00:27:02.875Z,10.50
2023-05-02T00:28:03.350Z,10.50
2023-05-02T00:29:03.063Z,10.50
2023-05-02T00:30:03.745Z,10.40
2023-05-02T00:31:03.318Z,10.40
2023-05-02T00:32:02.722Z,10.40
2023-05-02T00:33:03.260Z,10.40
2023-05-02T00:34:03.058Z,10.30
2023-05-02T00:35:03.005Z,10.30
2023-05-02T00:36:03.080Z,10.30
2023-05-02T00:37:02.916Z,10.30
2023-05-02T00:38:03.490Z,10.30
2023-05-02T00:39:03.017Z,10.20
2023-05-02T00:40:03.002Z,10.20
2023-05-02T00:41:02.825Z,10.20
2023-05-02T00:42:03.494Z,10.20
2023-05-02T00:43:03.432Z,10.20
2023-05-02T00:44:02.903Z,10.20
2023-05-02T00:45:03.663Z,10.20
2023-05-02T00:46:03.182Z,10.20
2023-05-02T00:47:02.707Z,10.10
2023-05-02T00:48:03.414Z,10.10
2023-05-02T00:49:03.118Z,10.10
2023-05-02T00:50:02.783Z,10.10
2023-05-02T00:51:03.673Z,10.10
2023-05-02T00:52:03.506Z,10.10
2023-05-02T00:53:02.992Z,10.10
2023-05-02T00:54:03.315Z,10.10
2023-05-02T00:55:02.814Z,10.00
2023-05-02T00:56:03.311Z,10.00
2023-05-02T00:57:02.984Z,10.00
2023-05-02T00:58:03.105Z,10.00
2023-05-02T00:59:03.652Z,10.00
2023-05-02T01:00:03.156Z,10.00
2023-05-02T01:01:03.147Z,9.90
2023-05-02T01:02:02.656Z,9.90
2023-05-02T01:03:03.600Z,9.90
2023-05-02T01:04:03.627Z,9.90
2023-05-02T01:05:03.430Z,9.90
2023-05-02T01:06:02.873Z,9.90
2023-05-02T01:07:03.490Z,9.90
2023-05-02T01:08:03.027Z,9.90
2023-05-02T01:09:02.597Z,9.90
2023-05-02T01:10:03.220Z,9.80
2023-05-02T01:11:02.834Z,9.90
2023-05-02T01:12:02.705Z,9.80
2023-05-02T01:13:03.480Z,9.80
2023-05-02T01:14:02.702Z,9.80
2023-05-02T01:15:02.661Z,9.80
2023-05-02T01:16:03.261Z,9.80
2023-05-02T01:17:02.880Z,9.80
2023-05-02T01:18:02.900Z,9.80
2023-05-02T01:19:03.499Z,9.70
2023-05-02T01:20:03.486Z,9.70
2023-05-02T01:21:02.734Z,9.70
2023-05-02T01:22:03.275Z,9.70
2023-05-02T01:23:02.926Z,9.70
2023-05-02T01:24:02.829Z,9.70
2023-05-02T01:25:03.384Z,9.70
2023-05-02T01:26:02.941Z,9.60
2023-05-02T01:27:02.957Z,9.60
2023-05-02T01:28:03.422Z,9.60
2023-05-02T01:29:02.892Z,9.60
2023-05-02T01:30:03.392Z,9.60
2023-05-02T01:31:03.483Z,9.60
2023-05-02T01:32:03.235Z,9.60
2023-05-02T01:33:03.338Z,9.60
2023-05-02T01:34:03.619Z,9.50
2023-05-02T01:35:03.579Z,9.50
2023-05-02T01:36:03.495Z,9.50
2023-05-02T01:37:03.461Z,9.50
2023-05-02T01:38:03.406Z,9.50
2023-05-02T01:39:02.941Z,9.50
2023-05-02T01:40:02.924Z,9.40
2023-05-02T01:41:03.346Z,9.40
2023-05-02T01:42:03.430Z,9.40
2023-05-02T01:43:02.896Z,9.40
2023-05-02T01:44:03.457Z,9.40
2023-05-02T01:45:03.428Z,9.40
2023-05-02T01:46:03.307Z,9.40
2023-05-02T01:47:02.894Z,9.40
2023-05-02T01:48:02.700Z,9.30
2023-05-02T01:49:03.441Z,9.30
2023-05-02T01:50:03.453Z,9.30
2023-05-02T01:51:02.954Z,9.30
2023-05-02T01:52:02.956Z,9.30
2023-05-02T01:53:03.455Z,9.30
2023-05-02T01:54:03.098Z,9.30
2023-05-02T01:55:02.615Z,9.20
2023-05-02T01:56:02.609Z,9.20
2023-05-02T01:57:03.193Z,9.20
2023-05-02T01:58:03.139Z,9.20
2023-05-02T01:59:03.608Z,9.20
2023-05-02T02:00:03.554Z,9.20
2023-05-02T02:01:04.972Z,9.10
2023-05-02T02:02:02.848Z,9.10
2023-05-02T02:03:02.752Z,9.10
2023-05-02T02:04:03.067Z,9.10
2023-05-02T02:05:03.089Z,9.10
2023-05-02T02:06:02.794Z,9.10
2023-05-02T02:07:02.923Z,9.10
2023-05-02T02:08:02.870Z,9.00
2023-05-02T02:09:03.576Z,9.00
2023-05-02T02:10:02.740Z,9.00
2023-05-02T02:11:02.673Z,9.00
2023-05-02T02:12:02.889Z,9.00
2023-05-02T02:13:02.674Z,8.90
2023-05-02T02:14:03.330Z,8.90
2023-05-02T02:15:02.690Z,8.90
2023-05-02T02:16:03.197Z,8.90
2023-05-02T02:17:03.282Z,8.90
2023-05-02T02:18:03.029Z,8.80
2023-05-02T02:19:03.640Z,8.80
2023-05-02T02:20:03.547Z,8.80
2023-05-02T02:21:03.609Z,8.80
2023-05-02T02:22:03.246Z,8.80
2023-05-02T02:23:02.702Z,8.80
2023-05-02T02:24:02.872Z,8.80
2023-05-02T02:25:02.944Z,8.80
2023-05-02T02:26:02.884Z,8.80
2023-05-02T02:27:03.424Z,8.80
2023-05-02T02:28:03.116Z,8.80
2023-05-02T02:29:02.678Z,8.80
2023-05-02T02:30:03.346Z,8.80
2023-05-02T02:31:02.769Z,8.80
2023-05-02T02:32:02.757Z,8.80
2023-05-02T02:33:02.756Z,8.70
2023-05-02T02:34:03.066Z,8.70
2023-05-02T02:35:03.470Z,8.70
2023-05-02T02:36:02.999Z,8.70
2023-05-02T02:37:02.902Z,8.70
2023-05-02T02:38:02.883Z,8.70
2023-05-02T02:39:03.391Z,8.70
2023-05-02T02:40:03.163Z,8.70
2023-05-02T02:41:02.777Z,8.60
2023-05-02T02:42:03.287Z,8.60
2023-05-02T02:43:03.242Z,8.60
2023-05-02T02:44:02.810Z,8.60
2023-05-02T02:45:03.258Z,8.60
2023-05-02T02:46:02.827Z,8.60
2023-05-02T02:47:02.914Z,8.60
2023-05-02T02:48:03.393Z,8.60
2023-05-02T02:49:03.032Z,8.60
2023-05-02T02:50:02.893Z,8.60
2023-05-02T02:51:03.525Z,8.60
2023-05-02T02:52:03.109Z,8.60
2023-05-02T02:53:03.221Z,8.50
2023-05-02T02:54:04.463Z,8.60
2023-05-02T02:55:03.522Z,8.50
2023-05-02T02:56:03.047Z,8.50
2023-05-02T02:57:03.033Z,8.50
2023-05-02T02:58:02.692Z,8.50
2023-05-02T02:59:03.010Z,8.50
2023-05-02T03:00:02.966Z,8.60
2023-05-02T03:01:02.852Z,8.50
2023-05-02T03:02:03.425Z,8.50
2023-05-02T03:03:03.320Z,8.50
2023-05-02T03:04:03.408Z,8.50
2023-05-02T03:05:02.611Z,8.50
2023-05-02T03:06:03.210Z,8.50
2023-05-02T03:07:02.763Z,8.50
2023-05-02T03:08:03.407Z,8.50
2023-05-02T03:09:02.918Z,8.50
2023-05-02T03:10:03.024Z,8.50
2023-05-02T03:11:03.626Z,8.50
2023-05-02T03:12:03.040Z,8.50
2023-05-02T03:13:03.561Z,8.50
2023-05-02T03:14:03.115Z,8.50
2023-05-02T03:15:02.769Z,8.40
2023-05-02T03:16:02.812Z,8.40
2023-05-02T03:17:03.350Z,8.40
2023-05-02T03:18:03.055Z,8.40
2023-05-02T03:19:03.233Z,8.40
2023-05-02T03:20:03.141Z,8.40
2023-05-02T03:21:03.234Z,8.40
2023-05-02T03:22:02.751Z,8.40
2023-05-02T03:23:02.874Z,8.40
2023-05-02T03:24:03.566Z,8.40
2023-05-02T03:25:03.105Z,8.40
2023-05-02T03:26:03.551Z,8.40
2023-05-02T03:27:03.489Z,8.40
2023-05-02T03:28:03.508Z,8.50
2023-05-02T03:29:03.057Z,8.50
2023-05-02T03:30:03.599Z,8.50
2023-05-02T03:31:03.258Z,8.50
2023-05-02T03:32:03.470Z,8.50
2023-05-02T03:33:03.330Z,8.50
2023-05-02T03:34:03.154Z,8.50
2023-05-02T03:35:02.836Z,8.50
2023-05-02T03:36:03.312Z,8.60
2023-05-02T03:37:03.394Z,8.60
2023-05-02T03:38:02.892Z,8.60
2023-05-02T03:39:03.495Z,8.60
2023-05-02T03:40:03.175Z,8.60
2023-05-02T03:41:02.888Z,8.60
2023-05-02T03:42:03.247Z,8.60
2023-05-02T03:43:02.748Z,8.60
2023-05-02T03:44:03.354Z,8.60
2023-05-02T03:45:03.267Z,8.60
2023-05-02T03:46:03.180Z,8.60
2023-05-02T03:47:03.283Z,8.60
2023-05-02T03:48:02.997Z,8.60
2023-05-02T03:49:03.142Z,8.60
2023-05-02T03:50:03.258Z,8.60
2023-05-02T03:51:02.807Z,8.60
2023-05-02T03:52:02.791Z,8.60
2023-05-02T03:53:02.652Z,8.60
2023-05-02T03:54:03.337Z,8.60
2023-05-02T03:55:03.024Z,8.60
2023-05-02T03:56:03.612Z,8.60
2023-05-02T03:57:03.483Z,8.60
2023-05-02T03:58:03.022Z,8.60
2023-05-02T03:59:03.052Z,8.60
2023-05-02T04:00:02.840Z,8.70
2023-05-02T04:01:03.591Z,8.70
2023-05-02T04:02:03.102Z,8.70
2023-05-02T04:03:02.972Z,8.70
2023-05-02T04:04:03.693Z,8.70
2023-05-02T04:05:03.298Z,8.70
2023-05-02T04:06:03.076Z,8.70
2023-05-02T04:07:03.580Z,8.70
2023-05-02T04:08:03.126Z,8.80
2023-05-02T04:09:03.105Z,8.80
2023-05-02T04:10:02.977Z,8.80
2023-05-02T04:11:02.744Z,8.80
2023-05-02T04:12:02.625Z,8.80
2023-05-02T04:13:03.266Z,8.80
2023-05-02T04:14:02.796Z,8.80
2023-05-02T04:15:03.080Z,8.80
2023-05-02T04:16:03.643Z,8.80
2023-05-02T04:17:03.244Z,8.90
2023-05-02T04:18:03.113Z,8.90
2023-05-02T04:19:02.921Z,8.90
2023-05-02T04:20:05.418Z,8.90
2023-05-02T04:21:03.195Z,8.90
2023-05-02T04:22:03.728Z,8.90
2023-05-02T04:23:03.173Z,8.90
2023-05-02T04:24:02.768Z,8.90
2023-05-02T04:25:03.569Z,8.90
2023-05-02T04:26:02.893Z,8.90
2023-05-02T04:27:02.860Z,9.00
2023-05-02T04:28:03.548Z,9.00
2023-05-02T04:29:02.930Z,9.00
2023-05-02T04:30:03.516Z,9.00
2023-05-02T04:31:02.936Z,9.00
2023-05-02T04:32:02.866Z,9.00
2023-05-02T04:33:03.438Z,9.00
2023-05-02T04:34:03.134Z,9.00
2023-05-02T04:35:02.673Z,9.00
2023-05-02T04:36:03.489Z,9.00
2023-05-02T04:37:03.385Z,9.10
2023-05-02T04:38:02.845Z,9.10
2023-05-02T04:39:02.933Z,9.10
2023-05-02T04:40:03.403Z,9.10
2023-05-02T04:41:08.576Z,9.10
2023-05-02T04:42:02.751Z,9.10
2023-05-02T04:43:02.813Z,9.10
2023-05-02T04:44:03.345Z,9.10
2023-05-02T04:45:03.511Z,9.10
2023-05-02T04:46:03.065Z,9.10
2023-05-02T04:47:03.218Z,9.10
2023-05-02T04:48:03.123Z,9.10
2023-05-02T04:49:02.704Z,9.10
2023-05-02T04:50:02.837Z,9.10
2023-05-02T04:51:03.616Z,9.20
2023-05-02T04:52:03.001Z,9.20
2023-05-02T04:53:02.914Z,9.20
2023-05-02T04:54:03.462Z,9.20
2023-05-02T04:55:03.078Z,9.20
2023-05-02T04:56:02.672Z,9.20
2023-05-02T04:57:03.453Z,9.20
2023-05-02T04:58:02.993Z,9.20
2023-05-02T04:59:03.117Z,9.20
2023-05-02T05:00:03.004Z,9.30
2023-05-02T05:01:02.972Z,9.30
2023-05-02T05:02:03.508Z,9.30
2023-05-02T05:03:02.714Z,9.30
2023-05-02T05:04:03.349Z,9.30
2023-05-02T05:05:02.950Z,9.30
2023-05-02T05:06:03.642Z,9.40
2023-05-02T05:07:03.380Z,9.40
2023-05-02T05:08:02.888Z,9.40
2023-05-02T05:09:03.482Z,9.40
2023-05-02T05:10:03.512Z,9.40
2023-05-02T05:11:03.054Z,9.40
2023-05-02T05:12:03.111Z,9.50
2023-05-02T05:13:03.584Z,9.50
2023-05-02T05:14:03.570Z,9.50
2023-05-02T05:15:03.541Z,9.60
2023-05-02T05:16:03.122Z,9.60
2023-05-02T05:17:02.719Z,9.60
2023-05-02T05:18:03.327Z,9.60
2023-05-02T05:19:03.381Z,9.60
2023-05-02T05:20:03.463Z,9.70
2023-05-02T05:21:03.089Z,9.70
2023-05-02T05:22:03.511Z,9.70
2023-05-02T05:23:02.800Z,9.70
2023-05-02T05:24:03.266Z,9.70
2023-05-02T05:25:03.196Z,9.80
2023-05-02T05:26:03.015Z,9.80
2023-05-02T05:27:05.429Z,9.80
2023-05-02T05:28:03.328Z,9.80
2023-05-02T05:29:02.997Z,9.80
2023-05-02T05:30:03.029Z,9.80
2023-05-02T05:31:02.839Z,9.80
2023-05-02T05:32:03.586Z,9.80
2023-05-02T05:33:03.346Z,9.90
2023-05-02T05:34:03.565Z,9.90
2023-05-02T05:35:02.832Z,9.90
2023-05-02T05:36:02.790Z,9.90
2023-05-02T05:37:03.433Z,9.90
2023-05-02T05:38:03.348Z,9.90
2023-05-02T05:39:03.267Z,9.90
2023-05-02T05:40:03.086Z,9.90
2023-05-02T05:41:03.146Z,10.00
2023-05-02T05:42:02.638Z,10.00
2023-05-02T05:43:03.181Z,10.00
2023-05-02T05:44:03.313Z,10.00
2023-05-02T05:45:03.237Z,10.00
2023-05-02T05:46:02.943Z,10.00
2023-05-02T05:47:02.952Z,10.00
2023-05-02T05:48:03.003Z,10.10
2023-05-02T05:49:02.850Z,10.10
2023-05-02T05:50:02.955Z,10.10
2023-05-02T05:51:02.687Z,10.10
2023-05-02T05:52:03.288Z,10.10
2023-05-02T05:53:02.792Z,10.20
2023-05-02T05:54:03.466Z,10.20
2023-05-02T05:55:03.481Z,10.20
2023-05-02T05:56:03.514Z,10.20
2023-05-02T05:57:02.672Z,10.30
2023-05-02T05:58:03.089Z,10.30
2023-05-02T05:59:03.250Z,10.30
2023-05-02T06:00:03.800Z,10.30
2023-05-02T06:01:03.464Z,10.30
2023-05-02T06:02:03.064Z,10.30
2023-05-02T06:03:02.739Z,10.40
2023-05-02T06:04:03.571Z,10.40
2023-05-02T06:05:03.705Z,10.40
2023-05-02T06:06:03.492Z,10.40
2023-05-02T06:07:03.338Z,10.50
2023-05-02T06:08:02.870Z,10.50
2023-05-02T06:09:03.513Z,10.50
2023-05-02T06:10:03.291Z,10.50
2023-05-02T06:11:02.922Z,10.50
2023-05-02T06:12:03.430Z,10.50
2023-05-02T06:13:02.840Z,10.60
2023-05-02T06:14:02.830Z,10.60
2023-05-02T06:15:02.877Z,10.60
2023-05-02T06:16:03.551Z,10.60
2023-05-02T06:17:03.455Z,10.60
2023-05-02T06:18:02.993Z,10.70
2023-05-02T06:19:03.264Z,10.70
2023-05-02T06:20:03.078Z,10.70
2023-05-02T06:21:03.604Z,10.70
2023-05-02T06:22:02.803Z,10.70
2023-05-02T06:23:03.158Z,10.80
2023-05-02T06:24:02.729Z,10.80
2023-05-02T06:25:03.388Z,10.80
2023-05-02T06:26:02.976Z,10.80
2023-05-02T06:27:02.779Z,10.80
2023-05-02T06:28:03.171Z,10.90
2023-05-02T06:29:02.762Z,10.90
2023-05-02T06:30:03.073Z,10.90
2023-05-02T06:31:03.145Z,10.90
2023-05-02T06:32:03.655Z,11.00
2023-05-02T06:33:03.247Z,11.00
2023-05-02T06:34:02.970Z,11.00
2023-05-02T06:35:03.597Z,11.00
2023-05-02T06:36:02.647Z,11.00
2023-05-02T06:37:02.651Z,11.00
2023-05-02T06:38:02.936Z,11.00
2023-05-02T06:39:03.585Z,11.00
2023-05-02T06:40:03.948Z,11.10
2023-05-02T06:41:03.572Z,11.10
2023-05-02T06:42:03.496Z,11.10
2023-05-02T06:43:02.765Z,11.10
2023-05-02T06:44:03.597Z,11.10
2023-05-02T06:45:03.488Z,11.10
2023-05-02T06:46:03.127Z,11.10
2023-05-02T06:47:02.845Z,11.10
2023-05-02T06:48:03.183Z,11.10
2023-05-02T06:49:03.448Z,11.10
2023-05-02T06:50:03.178Z,11.10
2023-05-02T06:51:03.650Z,11.10
2023-05-02T06:52:03.137Z,11.10
2023-05-02T06:53:03.163Z,11.10
2023-05-02T06:54:02.877Z,11.10
2023-05-02T06:55:03.029Z,11.20
2023-05-02T06:56:02.909Z,11.20
2023-05-02T06:57:02.818Z,11.20
2023-05-02T06:58:03.496Z,11.20
2023-05-02T06:59:03.072Z,11.20
2023-05-02T07:00:02.975Z,11.20
2023-05-02T07:01:03.197Z,11.20
2023-05-02T07:02:05.114Z,11.30
2023-05-02T07:03:02.705Z,11.30
2023-05-02T07:04:03.067Z,11.30
2023-05-02T07:05:02.782Z,11.30
2023-05-02T07:06:03.357Z,11.30
2023-05-02T07:07:02.902Z,11.40
2023-05-02T07:08:03.016Z,11.40
2023-05-02T07:09:02.937Z,11.40
2023-05-02T07:10:03.122Z,11.40
2023-05-02T07:11:03.594Z,11.50
2023-05-02T07:12:05.389Z,11.50
2023-05-02T07:13:02.991Z,11.50
2023-05-02T07:14:03.501Z,11.60
2023-05-02T07:15:02.797Z,11.60
2023-05-02T07:16:03.304Z,11.60
2023-05-02T07:17:03.052Z,11.70
2023-05-02T07:18:02.760Z,11.70
2023-05-02T07:19:03.455Z,11.70
2023-05-02T07:20:03.318Z,11.80
2023-05-02T07:21:03.032Z,11.80
2023-05-02T07:22:02.963Z,11.80
2023-05-02T07:23:03.559Z,11.80
2023-05-02T07:24:02.824Z,11.80
2023-05-02T07:25:02.950Z,11.90
2023-05-02T07:26:04.284Z,11.90
2023-05-02T07:27:03.415Z,11.90
2023-05-02T07:28:02.977Z,12.00
2023-05-02T07:29:03.544Z,12.00
2023-05-02T07:30:03.374Z,12.00
2023-05-02T07:31:03.078Z,12.00
2023-05-02T07:32:02.767Z,12.10
2023-05-02T07:33:03.406Z,12.10
2023-05-02T07:34:03.493Z,12.10
2023-05-02T07:35:03.198Z,12.10
2023-05-02T07:36:03.223Z,12.10
2023-05-02T07:37:02.898Z,12.20
2023-05-02T07:38:03.541Z,12.20
2023-05-02T07:39:02.649Z,12.20
2023-05-02T07:40:03.572Z,12.30
2023-05-02T07:41:02.731Z,12.30
2023-05-02T07:42:02.699Z,12.30
2023-05-02T07:43:02.823Z,12.30
2023-05-02T07:44:03.399Z,12.40
2023-05-02T07:45:02.821Z,12.40
2023-05-02T07:46:03.045Z,12.50
2023-05-02T07:47:02.649Z,12.50
2023-05-02T07:48:02.770Z,12.50
2023-05-02T07:49:03.498Z,12.50
2023-05-02T07:50:03.075Z,12.60
2023-05-02T07:51:03.446Z,12.60
2023-05-02T07:52:03.418Z,12.60
2023-05-02T07:53:02.895Z,12.60
2023-05-02T07:54:03.417Z,12.70
2023-05-02T07:55:03.178Z,12.70
2023-05-02T07:56:03.364Z,12.70
2023-05-02T07:57:02.797Z,12.80
2023-05-02T07:58:03.326Z,12.80
2023-05-02T07:59:04.258Z,12.80
2023-05-02T08:00:03.858Z,12.90
2023-05-02T08:01:03.630Z,12.90
2023-05-02T08:02:03.226Z,12.90
2023-05-02T08:03:02.891Z,13.00
2023-05-02T08:04:03.017Z,13.00
2023-05-02T08:05:02.975Z,13.00
2023-05-02T08:06:03.459Z,13.00
2023-05-02T08:07:03.345Z,13.10
2023-05-02T08:08:02.946Z,13.10
2023-05-02T08:09:02.869Z,13.10
2023-05-02T08:10:03.813Z,13.20
2023-05-02T08:11:02.698Z,13.20
2023-05-02T08:12:03.328Z,13.20
2023-05-02T08:13:03.204Z,13.30
2023-05-02T08:14:02.818Z,13.30
2023-05-02T08:15:03.389Z,13.30
2023-05-02T08:16:03.063Z,13.30
2023-05-02T08:17:03.199Z,13.30
2023-05-02T08:18:02.734Z,13.40
2023-05-02T08:19:03.526Z,13.40
2023-05-02T08:20:03.512Z,13.40
2023-05-02T08:21:02.978Z,13.40
2023-05-02T08:22:02.947Z,13.40
2023-05-02T08:23:02.788Z,13.40
2023-05-02T08:24:02.895Z,13.50
2023-05-02T08:25:03.500Z,13.50
2023-05-02T08:26:03.437Z,13.50
2023-05-02T08:27:02.999Z,13.50
2023-05-02T08:28:03.561Z,13.60
2023-05-02T08:29:03.221Z,13.60
2023-05-02T08:30:03.202Z,13.70
2023-05-02T08:31:03.418Z,13.70
2023-05-02T08:32:03.768Z,13.70
2023-05-02T08:33:03.516Z,13.80
2023-05-02T08:34:03.115Z,13.80
2023-05-02T08:35:03.188Z,13.90
2023-05-02T08:36:02.819Z,13.90
2023-05-02T08:37:02.702Z,14.00
2023-05-02T08:38:02.686Z,14.00
2023-05-02T08:39:03.406Z,14.00
2023-05-02T08:40:03.291Z,14.00
2023-05-02T08:41:03.473Z,14.00
2023-05-02T08:42:03.470Z,14.00
2023-05-02T08:43:03.444Z,14.00
2023-05-02T08:44:03.037Z,14.10
2023-05-02T08:45:02.928Z,14.00
2023-05-02T08:46:02.711Z,14.10
2023-05-02T08:47:02.957Z,14.10
2023-05-02T08:48:03.700Z,14.10
2023-05-02T08:49:03.141Z,14.10
2023-05-02T08:50:03.232Z,14.10
2023-05-02T08:51:02.884Z,14.10
2023-05-02T08:52:02.710Z,14.10
2023-05-02T08:53:03.642Z,14.10
2023-05-02T08:54:03.153Z,14.20
2023-05-02T08:55:02.808Z,14.20
2023-05-02T08:56:03.307Z,14.20
2023-05-02T08:57:02.902Z,14.20
2023-05-02T08:58:02.899Z,14.20
2023-05-02T08:59:02.903Z,14.30
2023-05-02T09:00:03.516Z,14.30
2023-05-02T09:01:03.540Z,14.30
2023-05-02T09:02:03.370Z,14.30
2023-05-02T09:03:03.317Z,14.30
2023-05-02T09:04:03.702Z,14.30
2023-05-02T09:05:03.427Z,14.30
2023-05-02T09:06:02.884Z,14.30
2023-05-02T09:07:03.545Z,14.30
2023-05-02T09:08:03.032Z,14.30
2023-05-02T09:09:03.586Z,14.30
2023-05-02T09:10:03.196Z,14.30
2023-05-02T09:11:02.878Z,14.30
2023-05-02T09:12:03.418Z,14.30
2023-05-02T09:13:03.011Z,14.30
2023-05-02T09:14:02.725Z,14.30
2023-05-02T09:15:03.260Z,14.30
2023-05-02T09:16:03.034Z,14.20
2023-05-02T09:17:03.734Z,14.20
2023-05-02T09:18:03.339Z,14.20
2023-05-02T09:19:02.747Z,14.20
2023-05-02T09:20:02.970Z,14.20
2023-05-02T09:21:03.705Z,14.20
2023-05-02T09:22:03.133Z,14.20
2023-05-02T09:23:03.228Z,14.20
2023-05-02T09:24:03.200Z,14.20
2023-05-02T09:25:02.926Z,14.20
2023-05-02T09:26:02.954Z,14.20
2023-05-02T09:27:03.292Z,14.20
2023-05-02T09:28:02.954Z,14.20
2023-05-02T09:29:03.548Z,14.20
2023-05-02T09:30:03.597Z,14.20
2023-05-02T09:31:02.762Z,14.20
2023-05-02T09:32:03.295Z,14.30
2023-05-02T09:33:03.034Z,14.30
2023-05-02T09:34:03.526Z,14.30
2023-05-02T09:35:03.247Z,14.30
2023-05-02T09:36:03.493Z,14.30
2023-05-02T09:37:03.040Z,14.40
2023-05-02T09:40:03.236Z,14.40
2023-05-02T09:41:03.300Z,14.40
2023-05-02T09:42:02.775Z,14.40
2023-05-02T09:43:02.825Z,14.40
2023-05-02T09:44:02.751Z,14.40
2023-05-02T09:45:03.102Z,14.40
2023-05-02T09:46:02.992Z,14.40
2023-05-02T09:47:03.623Z,14.40
2023-05-02T09:48:02.943Z,14.40
2023-05-02T09:49:03.503Z,14.30
2023-05-02T09:50:03.141Z,14.30
2023-05-02T09:51:02.824Z,14.30
2023-05-02T09:52:03.349Z,14.30
2023-05-02T09:53:02.892Z,14.30
2023-05-02T09:54:03.414Z,14.30
2023-05-02T09:55:02.979Z,14.30
2023-05-02T09:56:03.577Z,14.30
2023-05-02T09:57:03.298Z,14.30
2023-05-02T09:58:03.168Z,14.30
2023-05-02T09:59:02.794Z,14.30
2023-05-02T10:00:03.423Z,14.20
2023-05-02T10:01:03.239Z,14.20
2023-05-02T10:02:03.124Z,14.20
2023-05-02T10:03:03.570Z,14.20
2023-05-02T10:04:02.801Z,14.20
2023-05-02T10:05:03.572Z,14.20
2023-05-02T10:06:03.429Z,14.20
2023-05-02T10:07:02.981Z,14.20
2023-05-02T10:08:03.306Z,14.20
2023-05-02T10:09:03.460Z,14.20
2023-05-02T10:10:02.990Z,14.20
2023-05-02T10:11:03.549Z,14.20
2023-05-02T10:12:03.290Z,14.20
2023-05-02T10:13:03.119Z,14.20
2023-05-02T10:14:02.741Z,14.20
2023-05-02T10:15:03.413Z,14.20
2023-05-02T10:16:03.411Z,14.20
2023-05-02T10:17:03.478Z,14.20
2023-05-02T10:18:03.607Z,14.20
2023-05-02T10:19:02.737Z,14.20
2023-05-02T10:20:03.625Z,14.20
2023-05-02T10:21:02.710Z,14.20
2023-05-02T10:22:03.155Z,14.20
2023-05-02T10:23:03.673Z,14.20
2023-05-02T10:24:03.300Z,14.20
2023-05-02T10:25:03.467Z,14.20
2023-05-02T10:26:03.583Z,14.20
2023-05-02T10:27:03.425Z,14.20
2023-05-02T10:28:03.311Z,14.20
2023-05-02T10:29:03.003Z,14.30
2023-05-02T10:30:02.828Z,14.30
2023-05-02T10:31:03.626Z,14.30
2023-05-02T10:32:03.109Z,14.30
2023-05-02T10:33:02.806Z,14.30
2023-05-02T10:34:02.804Z,14.30
2023-05-02T10:35:02.983Z,14.40
2023-05-02T10:36:03.652Z,14.40
2023-05-02T10:37:02.652Z,14.40
2023-05-02T10:38:03.260Z,14.50
2023-05-02T10:39:02.986Z,14.50
2023-05-02T10:40:02.882Z,14.50
2023-05-02T10:41:03.469Z,14.50
2023-05-02T10:42:03.516Z,14.60
2023-05-02T10:43:03.063Z,14.60
2023-05-02T10:44:02.725Z,14.70
2023-05-02T10:45:03.451Z,14.70
2023-05-02T10:46:03.516Z,14.80
2023-05-02T10:47:03.577Z,14.80
2023-05-02T10:48:02.796Z,14.80
2023-05-02T10:49:03.267Z,14.90
2023-05-02T10:50:02.892Z,14.90
2023-05-02T10:51:02.795Z,15.00
2023-05-02T10:52:02.768Z,15.00
2023-05-02T10:53:02.728Z,15.10
2023-05-02T10:54:03.338Z,15.10
2023-05-02T10:55:03.068Z,15.20
2023-05-02T10:56:02.794Z,15.20
2023-05-02T10:57:03.359Z,15.20
2023-05-02T10:58:03.039Z,15.20
2023-05-02T10:59:02.824Z,15.30
2023-05-02T11:00:02.675Z,15.30
2023-05-02T11:01:03.535Z,15.40
2023-05-02T11:02:04.602Z,15.40
2023-05-02T11:03:03.095Z,15.40
2023-05-02T11:04:02.968Z,15.50
2023-05-02T11:05:03.715Z,15.50
2023-05-02T11:06:02.894Z,15.60
2023-05-02T11:07:02.980Z,15.70
2023-05-02T11:08:03.115Z,15.70
2023-05-02T11:09:02.603Z,15.80
2023-05-02T11:10:03.620Z,15.80
2023-05-02T11:11:03.139Z,15.90
2023-05-02T11:12:02.867Z,16.00
2023-05-02T11:13:02.867Z,16.00
2023-05-02T11:14:03.532Z,16.10
2023-05-02T11:15:03.501Z,16.20
2023-05-02T11:16:02.986Z,16.20
2023-05-02T11:17:03.051Z,16.30
2023-05-02T11:18:02.715Z,16.30
2023-05-02T11:19:03.474Z,16.30
2023-05-02T11:20:03.162Z,16.40
2023-05-02T11:21:02.983Z,16.40
2023-05-02T11:22:02.986Z,16.40
2023-05-02T11:23:03.455Z,16.40
2023-05-02T11:24:03.418Z,16.40
2023-05-02T11:25:03.202Z,16.40
2023-05-02T11:26:02.710Z,16.40
2023-05-02T11:27:02.672Z,16.40
2023-05-02T11:28:02.821Z,16.40
2023-05-02T11:29:02.856Z,16.50
2023-05-02T11:30:03.364Z,16.50
2023-05-02T11:31:03.112Z,16.50
2023-05-02T11:32:02.706Z,16.50
2023-05-02T11:33:02.756Z,16.50
2023-05-02T11:34:02.811Z,16.50
2023-05-02T11:35:03.426Z,16.60
2023-05-02T11:36:03.150Z,16.60
2023-05-02T11:37:02.978Z,16.70
2023-05-02T11:38:03.605Z,16.70
2023-05-02T11:39:03.224Z,16.80
2023-05-02T11:40:03.114Z,16.90
2023-05-02T11:41:02.834Z,16.90
2023-05-02T11:42:03.383Z,17.00
2023-05-02T11:43:03.068Z,17.00
2023-05-02T11:44:02.667Z,17.10
2023-05-02T11:45:03.780Z,17.10
2023-05-02T11:46:03.072Z,17.10
2023-05-02T11:47:03.413Z,17.10
2023-05-02T11:48:02.973Z,17.20
2023-05-02T11:49:03.609Z,17.30
2023-05-02T11:50:02.682Z,17.30
2023-05-02T11:51:02.769Z,17.30
2023-05-02T11:52:03.594Z,17.40
2023-05-02T11:53:03.021Z,17.40
2023-05-02T11:54:03.477Z,17.40
2023-05-02T11:55:03.298Z,17.40
2023-05-02T11:56:03.382Z,17.30
2023-05-02T11:57:02.991Z,17.30
2023-05-02T11:58:02.946Z,17.20
2023-05-02T11:59:02.806Z,17.10
2023-05-02T12:00:03.449Z,17.10
2023-05-02T12:01:02.970Z,17.00
2023-05-02T12:02:02.952Z,17.00
2023-05-02T12:03:03.075Z,16.90
2023-05-02T12:04:03.494Z,16.90
2023-05-02T12:05:03.925Z,16.80
2023-05-02T12:06:02.799Z,16.80
2023-05-02T12:07:02.944Z,16.70
2023-05-02T12:08:03.413Z,16.70
2023-05-02T12:09:03.114Z,16.60
2023-05-02T12:10:03.178Z,16.60
2023-05-02T12:11:03.169Z,16.50
2023-05-02T12:12:03.093Z,16.50
2023-05-02T12:13:02.669Z,16.50
2023-05-02T12:14:02.638Z,16.40
2023-05-02T12:15:03.690Z,16.40
2023-05-02T12:16:03.533Z,16.30
2023-05-02T12:17:02.998Z,16.30
2023-05-02T12:18:03.547Z,16.30
2023-05-02T12:19:03.015Z,16.20
2023-05-02T12:20:02.777Z,16.20
2023-05-02T12:21:03.317Z,16.20
2023-05-02T12:22:03.295Z,16.20
2023-05-02T12:23:03.164Z,16.20
2023-05-02T12:24:02.808Z,16.20
2023-05-02T12:25:02.960Z,16.30
2023-05-02T12:26:02.699Z,16.30
2023-05-02T12:27:02.708Z,16.30
2023-05-02T12:28:03.308Z,16.30
2023-05-02T12:29:03.080Z,16.30
2023-05-02T12:30:03.462Z,16.40
2023-05-02T12:31:03.637Z,16.40
2023-05-02T12:32:03.298Z,16.40
2023-05-02T12:33:02.977Z,16.50
2023-05-02T12:34:02.791Z,16.50
2023-05-02T12:35:02.845Z,16.50
2023-05-02T12:36:02.816Z,16.50
2023-05-02T12:37:03.481Z,16.50
2023-05-02T12:38:02.971Z,16.50
2023-05-02T12:39:02.909Z,16.50
2023-05-02T12:40:03.150Z,16.50
2023-05-02T12:41:03.243Z,16.50
2023-05-02T12:42:03.335Z,16.50
2023-05-02T12:43:03.350Z,16.50
2023-05-02T12:44:02.843Z,16.50
2023-05-02T12:45:03.437Z,16.50
2023-05-02T12:46:02.998Z,16.50
2023-05-02T12:47:03.045Z,16.40
2023-05-02T12:48:02.906Z,16.30
2023-05-02T12:49:02.752Z,16.20
2023-05-02T12:50:03.772Z,16.20
2023-05-02T12:51:02.830Z,16.10
2023-05-02T12:52:03.363Z,15.90
2023-05-02T12:53:03.433Z,15.80
2023-05-02T12:54:03.182Z,15.70
2023-05-02T12:55:03.097Z,15.60
2023-05-02T12:56:03.337Z,15.60
2023-05-02T12:57:03.042Z,15.40
2023-05-02T12:58:03.511Z,15.30
2023-05-02T12:59:02.997Z,15.20
2023-05-02T13:00:03.026Z,15.10
2023-05-02T13:01:03.061Z,15.00
2023-05-02T13:02:02.787Z,14.90
2023-05-02T13:03:03.460Z,14.90